Time;durP1;ratioP1;P1;durP2;ratioP2;P2;SDS_P1;SDS_P2;PMS_P1;PMS_P2;Temp;Humidity;BMP_temperature;BMP_pressure;BME280_temperature;BME280_humidity;BME280_pressure;Samples;Min_cycle;Max_cycle;Signal;HPM_P1;HPM_P2
2022/09/13 00:01:41;;;;;;;10.53;6.37;;;11.10;57.00;;;;;;5069423;27;46569;-64
2022/09/13 00:04:07;;;;;;;9.27;6.33;;;11.10;56.40;;;;;;5069471;27;46388;-63
2022/09/13 00:06:33;;;;;;;8.87;5.70;;;11.10;57.20;;;;;;5067873;28;46429;-63
2022/09/13 00:09:00;;;;;;;10.57;6.33;;;11.10;57.20;;;;;;5067553;28;46043;-63
2022/09/13 00:11:30;;;;;;;10.80;5.70;;;11.10;57.30;;;;;;5068540;28;46463;-62
2022/09/13 00:13:58;;;;;;;9.50;6.57;;;11.10;56.60;;;;;;5065780;28;46481;-64
2022/09/13 00:16:29;;;;;;;9.17;5.47;;;11.10;57.50;;;;;;5069090;28;46361;-61
2022/09/13 00:19:10;;;;;;;9.03;5.77;;;11.10;57.70;;;;;;5063545;28;46496;-61
2022/09/13 00:22:02;;;;;;;17.73;5.63;;;11.10;57.70;;;;;;5069828;28;46436;-61
2022/09/13 00:24:52;;;;;;;6.97;5.47;;;11.10;56.90;;;;;;5071737;27;46388;-62
2022/09/13 00:27:45;;;;;;;9.03;5.40;;;11.10;57.10;;;;;;5072333;27;46305;-61
2022/09/13 00:30:15;;;;;;;9.37;6.07;;;11.00;58.10;;;;;;5070225;28;46516;-62
2022/09/13 00:32:40;;;;;;;7.50;5.13;;;11.00;58.10;;;;;;5072172;28;46470;-63
2022/09/13 00:35:07;;;;;;;8.10;5.53;;;10.90;57.50;;;;;;5072311;28;46120;-64
2022/09/13 00:37:33;;;;;;;8.30;5.43;;;10.90;58.60;;;;;;5071410;28;46636;-63
2022/09/13 00:39:59;;;;;;;6.60;4.60;;;10.90;57.70;;;;;;5070968;27;47225;-64
2022/09/13 00:42:27;;;;;;;5.87;4.37;;;10.90;58.60;;;;;;5072266;27;46424;-63
2022/09/13 00:44:57;;;;;;;9.80;4.70;;;10.70;58.00;;;;;;5070809;28;46476;-64
2022/09/13 00:47:36;;;;;;;7.87;4.77;;;10.60;59.10;;;;;;5071904;28;46620;-63
2022/09/13 00:50:13;;;;;;;6.87;4.53;;;10.50;59.40;;;;;;5072553;27;47263;-64
2022/09/13 00:52:41;;;;;;;8.77;4.07;;;10.50;59.40;;;;;;5072311;27;45824;-64
2022/09/13 00:55:18;;;;;;;8.40;4.23;;;10.40;58.70;;;;;;5071796;28;46417;-63
2022/09/13 00:57:44;;;;;;;8.13;4.17;;;10.40;59.60;;;;;;5069769;28;45807;-65
2022/09/13 01:00:16;;;;;;;5.70;4.00;;;10.30;59.60;;;;;;5070490;28;46393;-64
2022/09/13 01:02:53;;;;;;;7.93;5.13;;;10.30;58.70;;;;;;5070087;28;46354;-63
2022/09/13 01:05:26;;;;;;;6.90;4.17;;;10.30;58.70;;;;;;5070704;28;46424;-64
2022/09/13 01:07:52;;;;;;;6.90;4.43;;;10.30;59.70;;;;;;5072543;28;46484;-64
2022/09/13 01:10:17;;;;;;;6.37;4.30;;;10.30;59.70;;;;;;5070749;28;46519;-64
2022/09/13 01:13:13;;;;;;;6.07;4.47;;;10.30;59.70;;;;;;5071609;27;46385;-64
2022/09/13 01:15:40;;;;;;;6.97;4.80;;;10.30;58.80;;;;;;5070595;28;46432;-64
2022/09/13 01:18:07;;;;;;;6.97;4.10;;;10.30;59.80;;;;;;5069305;28;46454;-63
2022/09/13 01:21:13;;;;;;;7.43;4.77;;;10.20;59.70;;;;;;5070605;28;47025;-63
2022/09/13 01:24:03;;;;;;;6.93;4.57;;;10.20;59.90;;;;;;5070028;28;46486;-63
2022/09/13 01:26:54;;;;;;;8.50;4.07;;;10.20;58.80;;;;;;5069260;28;46393;-63
2022/09/13 01:29:37;;;;;;;6.37;4.20;;;10.20;59.80;;;;;;5069481;27;47013;-62
2022/09/13 01:32:27;;;;;;;8.73;5.50;;;10.20;59.70;;;;;;5070095;28;46338;-63
2022/09/13 01:35:22;;;;;;;7.63;4.57;;;10.20;58.70;;;;;;5068398;28;45763;-63
2022/09/13 01:37:59;;;;;;;6.27;4.40;;;10.20;59.60;;;;;;5066657;28;46515;-63
2022/09/13 01:40:50;;;;;;;7.90;4.50;;;10.10;59.50;;;;;;5069520;28;46452;-63
2022/09/13 01:43:49;;;;;;;5.97;4.17;;;10.10;59.60;;;;;;5069431;28;46315;-64
2022/09/13 01:46:35;;;;;;;8.20;4.80;;;10.10;58.40;;;;;;5070058;28;46435;-64
2022/09/13 01:49:33;;;;;;;8.00;4.80;;;10.20;59.40;;;;;;5070853;28;45853;-64
2022/09/13 01:52:24;;;;;;;6.17;4.27;;;10.20;59.20;;;;;;5071333;27;46781;-64
2022/09/13 01:55:15;;;;;;;5.53;3.97;;;10.10;58.10;;;;;;5069626;28;46322;-64
2022/09/13 01:57:48;;;;;;;10.83;4.40;;;10.10;59.30;;;;;;5070716;28;46333;-62
2022/09/13 02:00:17;;;;;;;5.63;3.30;;;10.10;59.20;;;;;;5069579;28;46506;-64
2022/09/13 02:02:59;;;;;;;8.27;4.80;;;10.10;59.30;;;;;;5070814;28;46484;-63
2022/09/13 02:05:36;;;;;;;6.63;4.37;;;10.10;58.40;;;;;;5069952;28;46445;-63
2022/09/13 02:08:12;;;;;;;6.93;4.20;;;10.10;58.30;;;;;;5068134;28;46440;-65
2022/09/13 02:10:41;;;;;;;10.87;4.80;;;10.00;59.20;;;;;;5070011;27;46664;-63
2022/09/13 02:13:14;;;;;;;6.70;4.37;;;10.20;59.30;;;;;;5068549;28;46285;-64
2022/09/13 02:15:45;;;;;;;7.30;4.30;;;10.30;58.30;;;;;;5069282;28;46836;-64
2022/09/13 02:18:28;;;;;;;7.20;4.37;;;10.30;59.20;;;;;;5067141;28;46453;-64
2022/09/13 02:21:00;;;;;;;5.60;3.87;;;10.30;59.10;;;;;;5067920;28;46424;-64
2022/09/13 02:23:34;;;;;;;5.73;4.13;;;10.30;59.00;;;;;;5070606;28;46422;-63
2022/09/13 02:26:03;;;;;;;5.67;3.70;;;10.20;58.10;;;;;;5067987;28;47309;-64
2022/09/13 02:28:36;;;;;;;9.67;4.07;;;10.30;59.10;;;;;;5067822;28;46428;-63
2022/09/13 02:31:03;;;;;;;7.43;4.67;;;10.30;59.10;;;;;;5068303;28;46463;-64
2022/09/13 02:33:34;;;;;;;7.70;4.50;;;10.30;59.10;;;;;;5068780;28;45915;-63
2022/09/13 02:36:11;;;;;;;7.23;4.13;;;10.30;58.20;;;;;;5067222;28;48170;-64
2022/09/13 02:38:50;;;;;;;6.30;4.50;;;10.40;59.30;;;;;;5067220;28;46444;-63
2022/09/13 02:41:21;;;;;;;7.50;4.57;;;10.30;58.50;;;;;;5069263;27;46440;-66
2022/09/13 02:43:52;;;;;;;8.87;4.13;;;10.30;59.50;;;;;;5067639;28;45853;-64
2022/09/13 02:46:39;;;;;;;6.60;4.43;;;10.20;58.90;;;;;;5069918;28;47943;-63
2022/09/13 02:49:12;;;;;;;7.47;4.10;;;10.20;59.90;;;;;;5069130;28;46598;-63
2022/09/13 02:51:52;;;;;;;5.33;3.67;;;10.20;60.00;;;;;;5069535;28;46367;-64
2022/09/13 02:54:42;;;;;;;7.07;4.60;;;10.20;59.00;;;;;;5071346;28;46509;-64
2022/09/13 02:57:19;;;;;;;6.70;4.50;;;10.20;60.00;;;;;;5067936;28;48296;-64
2022/09/13 02:59:47;;;;;;;7.20;4.13;;;10.30;61.10;;;;;;5067860;28;46418;-63
2022/09/13 03:02:15;;;;;;;5.50;3.67;;;10.30;59.20;;;;;;5069710;27;46382;-64
2022/09/13 03:04:41;;;;;;;6.73;4.00;;;10.30;59.10;;;;;;5069183;28;46485;-64
2022/09/13 03:07:12;;;;;;;9.67;4.20;;;10.30;60.00;;;;;;5068946;28;46405;-63
2022/09/13 03:10:06;;;;;;;6.37;3.83;;;10.30;60.00;;;;;;5068262;28;46431;-63
2022/09/13 03:12:54;;;;;;;10.27;4.00;;;10.30;60.20;;;;;;5069148;28;45883;-63
2022/09/13 03:15:44;;;;;;;5.23;3.80;;;10.30;59.40;;;;;;5068696;28;46343;-63
2022/09/13 03:18:40;;;;;;;6.57;3.60;;;10.20;60.10;;;;;;5068203;28;45962;-64
2022/09/13 03:21:12;;;;;;;6.40;4.20;;;10.20;60.10;;;;;;5068395;27;47280;-63
2022/09/13 03:24:09;;;;;;;6.30;3.77;;;10.20;59.30;;;;;;5070269;28;46361;-63
2022/09/13 03:26:50;;;;;;;5.80;3.50;;;10.20;60.20;;;;;;5067367;28;46434;-63
2022/09/13 03:29:43;;;;;;;13.27;3.70;;;10.20;60.20;;;;;;5069398;28;46447;-65
2022/09/13 03:32:26;;;;;;;6.77;3.80;;;10.20;60.30;;;;;;5070642;28;46427;-63
2022/09/13 03:35:13;;;;;;;6.63;3.90;;;10.20;59.50;;;;;;5068463;27;46460;-63
2022/09/13 03:38:00;;;;;;;5.13;3.80;;;10.20;60.40;;;;;;5067633;28;46374;-63
2022/09/13 03:40:40;;;;;;;6.20;3.80;;;10.20;60.40;;;;;;5069112;28;47385;-64
2022/09/13 03:43:25;;;;;;;5.50;3.83;;;10.20;60.70;;;;;;5067982;28;46493;-63
2022/09/13 03:45:56;;;;;;;7.20;3.63;;;10.10;59.90;;;;;;5069513;28;46397;-63
2022/09/13 03:48:22;;;;;;;7.27;4.10;;;10.10;60.90;;;;;;5069560;27;46392;-64
2022/09/13 03:50:49;;;;;;;6.30;3.80;;;10.10;60.90;;;;;;5070123;28;46454;-64
2022/09/13 03:53:21;;;;;;;6.77;4.00;;;10.10;61.00;;;;;;5069521;28;46443;-63
2022/09/13 03:55:46;;;;;;;6.37;3.70;;;10.10;60.20;;;;;;5073183;28;46431;-63
2022/09/13 03:58:14;;;;;;;8.60;3.57;;;10.00;61.10;;;;;;5072935;27;46358;-64
2022/09/13 04:00:40;;;;;;;8.93;4.03;;;10.00;61.20;;;;;;5071895;28;47039;-64
2022/09/13 04:03:07;;;;;;;5.73;3.70;;;10.00;60.40;;;;;;5075069;28;46285;-63
2022/09/13 04:05:35;;;;;;;5.40;3.30;;;9.90;61.10;;;;;;5071148;27;45915;-64
2022/09/13 04:08:04;;;;;;;6.10;3.60;;;10.00;61.30;;;;;;5070942;28;46190;-63
2022/09/13 04:10:31;;;;;;;5.53;3.57;;;9.90;62.00;;;;;;5073288;28;47181;-64
2022/09/13 04:12:59;;;;;;;5.60;3.93;;;9.90;62.00;;;;;;5071603;28;46476;-64
2022/09/13 04:15:25;;;;;;;12.83;3.57;;;9.90;61.10;;;;;;5073360;28;46380;-64
2022/09/13 04:17:51;;;;;;;6.40;3.80;;;9.90;62.20;;;;;;5072496;28;46643;-64
2022/09/13 04:20:16;;;;;;;6.70;4.03;;;9.90;62.30;;;;;;5081163;27;47319;-64
2022/09/13 04:22:42;;;;;;;4.37;3.27;;;9.90;62.30;;;;;;5070106;28;46524;-64
2022/09/13 04:25:08;;;;;;;6.67;3.37;;;9.90;61.30;;;;;;5072417;28;45755;-66
2022/09/13 04:27:37;;;;;;;4.90;3.30;;;9.90;62.40;;;;;;5073259;27;45912;-65
2022/09/13 04:30:03;;;;;;;5.53;3.00;;;9.90;62.40;;;;;;5070152;28;46720;-63
2022/09/13 04:32:29;;;;;;;4.47;2.93;;;9.80;62.40;;;;;;5070794;28;46432;-63
2022/09/13 04:34:55;;;;;;;4.73;3.27;;;9.80;61.60;;;;;;5071957;28;45828;-63
2022/09/13 04:37:20;;;;;;;5.10;3.50;;;9.80;61.70;;;;;;5071333;28;46722;-63
2022/09/13 04:39:46;;;;;;;6.07;2.83;;;9.80;62.50;;;;;;5071566;27;46378;-63
2022/09/13 04:42:12;;;;;;;5.47;3.67;;;9.80;62.50;;;;;;5072411;27;45740;-63
2022/09/13 04:44:38;;;;;;;5.13;2.93;;;9.80;61.40;;;;;;5070668;27;46452;-63
2022/09/13 04:47:04;;;;;;;5.63;3.43;;;9.80;62.40;;;;;;5071784;28;46604;-63
2022/09/13 04:49:30;;;;;;;6.90;3.70;;;9.90;62.30;;;;;;5071202;28;47240;-64
2022/09/13 04:51:56;;;;;;;9.20;3.00;;;9.90;62.30;;;;;;5073268;28;46684;-63
2022/09/13 04:54:22;;;;;;;5.30;3.10;;;9.90;61.10;;;;;;5072158;28;46528;-63
2022/09/13 04:56:48;;;;;;;5.37;3.47;;;9.90;62.10;;;;;;5071423;27;46499;-63
2022/09/13 04:59:15;;;;;;;5.60;3.83;;;9.90;62.20;;;;;;5072220;28;48385;-64
2022/09/13 05:01:41;;;;;;;6.30;3.40;;;10.00;61.30;;;;;;5070462;28;46471;-63
2022/09/13 05:04:08;;;;;;;4.83;3.10;;;10.00;60.30;;;;;;5071083;27;46359;-63
2022/09/13 05:06:34;;;;;;;6.67;3.00;;;10.00;61.10;;;;;;5070613;27;46642;-64
2022/09/13 05:09:00;;;;;;;8.80;3.60;;;10.10;61.30;;;;;;5072045;28;47063;-63
2022/09/13 05:11:27;;;;;;;3.97;3.00;;;10.10;61.20;;;;;;5069952;28;46345;-63
2022/09/13 05:13:55;;;;;;;7.27;3.03;;;10.10;61.10;;;;;;5071866;28;46519;-63
2022/09/13 05:16:23;;;;;;;9.93;3.13;;;10.20;60.00;;;;;;5069276;28;46650;-63
2022/09/13 05:18:49;;;;;;;8.40;3.73;;;10.30;61.10;;;;;;5070114;28;47219;-65
2022/09/13 05:21:15;;;;;;;4.73;3.27;;;10.40;60.80;;;;;;5071479;27;46496;-63
2022/09/13 05:23:41;;;;;;;7.10;3.33;;;10.50;60.80;;;;;;5072275;28;46429;-63
2022/09/13 05:26:06;;;;;;;6.97;3.53;;;10.60;59.70;;;;;;5069663;28;46672;-63
2022/09/13 05:28:34;;;;;;;5.30;3.30;;;10.80;60.50;;;;;;5068960;28;48199;-63
2022/09/13 05:31:15;;;;;;;6.30;3.13;;;11.10;60.40;;;;;;5069877;28;46533;-62
2022/09/13 05:33:40;;;;;;;5.70;2.90;;;11.50;61.10;;;;;;5069176;28;46319;-64
2022/09/13 05:36:06;;;;;;;7.40;2.70;;;11.70;60.40;;;;;;5070542;28;46441;-64
2022/09/13 05:38:32;;;;;;;5.13;3.03;;;11.70;61.40;;;;;;5071389;28;46399;-64
2022/09/13 05:41:00;;;;;;;5.53;3.30;;;11.90;61.30;;;;;;5071372;27;46435;-63
2022/09/13 05:43:30;;;;;;;5.00;2.60;;;12.00;62.50;;;;;;5071734;28;47040;-62
2022/09/13 05:46:13;;;;;;;5.40;2.70;;;12.10;60.00;;;;;;5071235;27;46374;-63
2022/09/13 05:48:39;;;;;;;4.83;2.73;;;12.70;59.60;;;;;;5070545;27;47138;-63
2022/09/13 05:51:12;;;;;;;3.93;2.23;;;12.70;60.40;;;;;;5071661;28;46585;-64
2022/09/13 05:53:40;;;;;;;6.87;2.20;;;13.20;58.50;;;;;;5070480;28;46690;-63
2022/09/13 05:56:20;;;;;;;2.63;1.60;;;13.20;55.80;;;;;;5071433;28;46314;-64
2022/09/13 05:58:47;;;;;;;7.97;3.03;;;13.10;56.80;;;;;;5069717;28;46447;-64
2022/09/13 06:01:14;;;;;;;17.30;2.70;;;13.10;56.90;;;;;;5071090;28;46418;-64
2022/09/13 06:03:40;;;;;;;5.33;2.30;;;13.20;57.30;;;;;;5071344;27;46373;-64
2022/09/13 06:06:10;;;;;;;7.13;2.53;;;13.40;57.50;;;;;;5071933;27;46393;-64
2022/09/13 06:08:43;;;;;;;5.70;2.73;;;13.70;59.20;;;;;;5068756;28;47112;-62
2022/09/13 06:11:22;;;;;;;4.13;2.20;;;14.40;56.40;;;;;;5069746;28;46451;-61
2022/09/13 06:13:53;;;;;;;7.43;2.40;;;14.70;54.60;;;;;;5070354;28;46484;-62
2022/09/13 06:16:18;;;;;;;11.90;2.10;;;14.60;53.40;;;;;;5070922;27;46450;-64
2022/09/13 06:18:44;;;;;;;6.93;2.47;;;14.50;53.70;;;;;;5069654;27;46361;-63
2022/09/13 06:21:16;;;;;;;6.30;2.30;;;14.60;54.70;;;;;;5068153;28;46878;-64
2022/09/13 06:23:45;;;;;;;5.13;2.30;;;14.60;54.60;;;;;;5059388;28;46456;-64
2022/09/13 06:26:13;;;;;;;4.70;2.17;;;14.80;53.30;;;;;;5068622;28;46595;-63
2022/09/13 06:28:39;;;;;;;3.47;2.23;;;14.90;54.30;;;;;;5067503;27;48465;-63
2022/09/13 06:31:11;;;;;;;4.80;2.20;;;15.00;54.10;;;;;;5065989;28;46362;-62
2022/09/13 06:33:39;;;;;;;5.20;1.90;;;15.10;53.70;;;;;;5060870;28;46583;-63
2022/09/13 06:36:07;;;;;;;9.30;2.40;;;15.40;52.60;;;;;;5052706;28;46355;-64
2022/09/13 06:38:33;;;;;;;4.60;2.50;;;15.50;53.40;;;;;;5061487;28;49327;-63
2022/09/13 06:41:09;;;;;;;5.60;2.00;;;15.70;53.20;;;;;;5068155;28;46544;-63
2022/09/13 06:43:35;;;;;;;6.73;2.23;;;15.90;52.70;;;;;;5068241;28;46384;-63
2022/09/13 06:46:07;;;;;;;3.00;1.80;;;16.10;51.30;;;;;;5068472;27;46439;-63
2022/09/13 06:48:35;;;;;;;3.53;1.80;;;16.30;52.20;;;;;;5071312;28;46439;-63
2022/09/13 06:51:02;;;;;;;5.37;1.90;;;16.50;51.60;;;;;;5089919;27;46477;-63
2022/09/13 06:53:28;;;;;;;3.20;1.83;;;16.80;51.10;;;;;;5073956;28;46464;-63
2022/09/13 06:56:21;;;;;;;4.67;2.00;;;17.20;49.40;;;;;;5073934;28;46676;-63
2022/09/13 06:58:48;;;;;;;5.63;1.80;;;17.50;50.00;;;;;;5072163;28;47336;-64
2022/09/13 07:01:15;;;;;;;4.00;1.80;;;17.80;49.20;;;;;;5073807;28;46469;-61
2022/09/13 07:03:46;;;;;;;2.80;1.60;;;18.30;48.40;;;;;;5073968;28;46412;-64
2022/09/13 07:06:20;;;;;;;3.43;1.70;;;18.60;46.20;;;;;;5074726;28;46357;-62
2022/09/13 07:08:47;;;;;;;2.60;1.40;;;18.90;46.60;;;;;;5073112;28;46949;-62
2022/09/13 07:11:17;;;;;;;4.40;1.60;;;19.20;46.90;;;;;;5073842;27;46420;-63
2022/09/13 07:13:48;;;;;;;3.83;1.77;;;19.40;46.10;;;;;;5073093;27;46530;-62
2022/09/13 07:16:13;;;;;;;3.37;1.70;;;19.70;44.20;;;;;;5074084;28;46554;-62
2022/09/13 07:18:39;;;;;;;7.10;1.70;;;20.00;44.80;;;;;;5072882;28;47135;-63
2022/09/13 07:21:09;;;;;;;4.43;1.90;;;20.10;44.10;;;;;;5073563;28;46418;-63
2022/09/13 07:23:37;;;;;;;7.23;1.50;;;20.30;43.40;;;;;;5072717;28;46527;-62
2022/09/13 07:26:04;;;;;;;2.73;1.40;;;20.30;42.10;;;;;;5073691;28;46409;-63
2022/09/13 07:28:35;;;;;;;3.63;1.50;;;20.20;43.30;;;;;;5072322;27;47109;-62
2022/09/13 07:31:22;;;;;;;6.30;1.70;;;20.10;43.10;;;;;;5074036;28;46748;-63
2022/09/13 07:33:54;;;;;;;5.20;1.50;;;20.20;42.80;;;;;;5073354;28;46405;-62
2022/09/13 07:36:19;;;;;;;2.60;1.37;;;20.30;41.40;;;;;;5075975;28;46745;-63
2022/09/13 07:38:47;;;;;;;3.43;1.50;;;20.50;42.30;;;;;;5074602;28;47266;-63
2022/09/13 07:41:17;;;;;;;4.20;1.70;;;20.80;41.60;;;;;;5074069;28;46306;-62
2022/09/13 07:43:44;;;;;;;3.10;1.47;;;21.00;40.50;;;;;;5074852;28;46553;-62
2022/09/13 07:46:14;;;;;;;3.70;1.37;;;21.00;38.80;;;;;;5073511;28;46025;-62
2022/09/13 07:48:41;;;;;;;4.50;1.33;;;21.10;39.70;;;;;;5072647;28;46389;-65
2022/09/13 07:51:19;;;;;;;6.30;1.30;;;21.40;39.40;;;;;;5073536;28;46967;-64
2022/09/13 07:53:46;;;;;;;7.43;1.53;;;21.40;39.00;;;;;;5073435;28;46421;-64
2022/09/13 07:56:15;;;;;;;2.83;1.50;;;21.50;37.30;;;;;;5071945;28;46426;-62
2022/09/13 07:58:42;;;;;;;3.93;1.20;;;21.40;38.70;;;;;;5072685;28;47206;-62
2022/09/13 08:01:22;;;;;;;11.43;1.53;;;21.20;38.80;;;;;;5073218;28;46609;-64
2022/09/13 08:04:12;;;;;;;3.63;1.47;;;21.40;36.60;;;;;;5073433;28;46444;-64
2022/09/13 08:06:39;;;;;;;6.50;1.50;;;21.50;37.70;;;;;;5071675;28;46489;-62
2022/09/13 08:09:06;;;;;;;2.87;1.30;;;21.60;37.70;;;;;;5073296;28;46605;-63
2022/09/13 08:11:36;;;;;;;2.80;1.27;;;21.70;37.10;;;;;;5072569;28;46463;-63
2022/09/13 08:14:03;;;;;;;4.03;1.50;;;21.80;34.60;;;;;;5072619;28;46512;-64
2022/09/13 08:16:29;;;;;;;3.87;1.30;;;21.80;35.80;;;;;;5073029;28;46503;-63
2022/09/13 08:18:58;;;;;;;3.10;1.73;;;21.80;35.70;;;;;;5071835;28;47112;-64
2022/09/13 08:21:24;;;;;;;6.93;1.20;;;21.80;35.70;;;;;;5071398;28;45804;-62
2022/09/13 08:23:55;;;;;;;10.20;1.40;;;21.80;35.70;;;;;;5073687;28;46837;-63
2022/09/13 08:26:21;;;;;;;3.40;1.37;;;22.00;34.00;;;;;;5073486;28;46536;-63
2022/09/13 08:28:46;;;;;;;5.37;1.80;;;22.20;34.80;;;;;;5071064;28;47825;-63
2022/09/13 08:31:16;;;;;;;6.00;1.50;;;22.40;33.80;;;;;;5072003;27;46453;-63
2022/09/13 08:33:49;;;;;;;2.90;1.20;;;22.40;33.00;;;;;;5072713;27;46555;-63
2022/09/13 08:36:16;;;;;;;2.33;1.20;;;22.40;31.20;;;;;;5069493;28;46447;-63
2022/09/13 08:38:53;;;;;;;3.20;1.10;;;22.40;32.50;;;;;;5071364;28;46350;-63
2022/09/13 08:41:37;;;;;;;2.43;1.20;;;22.30;32.00;;;;;;5074707;27;46937;-63
2022/09/13 08:44:32;;;;;;;3.83;1.47;;;22.00;32.00;;;;;;5075154;28;46428;-63
2022/09/13 08:47:27;;;;;;;2.63;1.20;;;21.90;32.70;;;;;;5075122;28;46749;-63
2022/09/13 08:50:45;;;;;;;4.70;1.13;;;21.80;33.30;;;;;;5056500;28;46506;-61
2022/09/13 08:53:35;;;;;;;2.20;1.10;;;21.70;33.70;;;;;;5074879;27;46435;-61
2022/09/13 08:56:45;;;;;;;5.10;1.40;;;21.50;33.10;;;;;;5075565;27;46512;-61
2022/09/13 08:59:52;;;;;;;6.37;1.40;;;21.40;34.50;;;;;;5076463;27;46373;-61
2022/09/13 09:03:09;;;;;;;3.00;1.30;;;21.00;34.60;;;;;;5075402;27;46518;-61
2022/09/13 09:06:05;;;;;;;2.80;1.30;;;20.80;33.70;;;;;;5076294;27;45872;-62
2022/09/13 09:09:18;;;;;;;5.20;1.30;;;20.90;34.90;;;;;;5075680;27;46663;-62
2022/09/13 09:12:05;;;;;;;2.93;1.33;;;21.20;35.00;;;;;;5074531;27;46571;-62
2022/09/13 09:14:43;;;;;;;3.47;1.20;;;21.20;33.90;;;;;;5074939;28;46706;-61
2022/09/13 09:17:57;;;;;;;4.53;1.50;;;21.20;34.70;;;;;;5074436;27;46395;-60
2022/09/13 09:20:45;;;;;;;2.37;1.30;;;21.10;35.00;;;;;;5068451;28;46512;-61
2022/09/13 09:23:47;;;;;;;6.10;1.27;;;21.30;35.20;;;;;;5074919;28;46728;-62
2022/09/13 09:26:37;;;;;;;3.40;1.23;;;21.60;33.70;;;;;;5071376;28;46557;-62
2022/09/13 09:29:45;;;;;;;3.23;1.50;;;21.70;34.30;;;;;;5074010;28;46549;-61
2022/09/13 09:32:53;;;;;;;4.63;1.67;;;21.90;34.00;;;;;;5073225;28;46454;-61
2022/09/13 09:35:46;;;;;;;4.50;1.50;;;22.10;32.90;;;;;;5074183;27;46475;-62
2022/09/13 09:38:45;;;;;;;2.60;1.40;;;22.10;33.80;;;;;;5072495;27;46718;-62
2022/09/13 09:41:37;;;;;;;6.73;1.40;;;22.40;33.80;;;;;;5072404;28;47587;-63
2022/09/13 09:44:32;;;;;;;7.73;1.43;;;22.80;32.20;;;;;;5073352;27;46739;-62
2022/09/13 09:47:29;;;;;;;4.00;1.60;;;22.80;33.10;;;;;;5075726;27;47055;-61
2022/09/13 09:50:15;;;;;;;2.50;1.30;;;22.80;32.90;;;;;;5074114;27;46980;-64
2022/09/13 09:53:00;;;;;;;18.33;1.83;;;22.80;32.50;;;;;;5074828;27;45860;-64
2022/09/13 09:55:44;;;;;;;2.93;1.57;;;22.90;31.10;;;;;;5074658;28;46396;-63
2022/09/13 09:58:11;;;;;;;3.50;1.70;;;23.00;32.20;;;;;;5075112;28;46382;-63
2022/09/13 10:00:51;;;;;;;3.90;1.30;;;23.10;32.30;;;;;;5074706;28;46524;-63
2022/09/13 10:03:19;;;;;;;3.40;1.40;;;23.20;32.00;;;;;;5073480;28;46414;-64
2022/09/13 10:05:46;;;;;;;3.20;1.70;;;23.20;31.10;;;;;;5074825;28;46365;-64
2022/09/13 10:08:32;;;;;;;5.10;1.60;;;23.40;32.10;;;;;;5074927;28;46551;-63
2022/09/13 10:10:59;;;;;;;5.37;1.80;;;23.70;31.30;;;;;;5073140;27;47826;-64
2022/09/13 10:13:25;;;;;;;3.10;1.40;;;23.70;31.30;;;;;;5073025;28;46512;-64
2022/09/13 10:16:25;;;;;;;4.13;1.20;;;23.80;29.70;;;;;;5074073;28;46459;-64
2022/09/13 10:18:50;;;;;;;4.03;1.10;;;23.90;30.00;;;;;;5075370;28;46568;-62
2022/09/13 10:21:16;;;;;;;3.70;1.13;;;24.00;30.50;;;;;;5071873;28;48017;-64
2022/09/13 10:23:42;;;;;;;3.27;1.10;;;24.00;29.80;;;;;;5075516;28;46685;-65
2022/09/13 10:26:21;;;;;;;4.10;1.70;;;24.00;28.60;;;;;;5073772;28;46495;-63
2022/09/13 10:29:02;;;;;;;3.40;1.33;;;24.00;29.30;;;;;;5075514;27;46372;-64
2022/09/13 10:32:02;;;;;;;4.80;1.23;;;24.20;29.20;;;;;;5073869;28;46033;-63
2022/09/13 10:34:33;;;;;;;8.23;2.00;;;24.60;28.10;;;;;;5074065;27;45895;-65
2022/09/13 10:37:21;;;;;;;2.77;1.33;;;24.60;28.70;;;;;;5078625;28;46604;-63
2022/09/13 10:40:17;;;;;;;4.03;1.40;;;24.60;28.00;;;;;;5056600;28;46394;-64
2022/09/13 10:42:56;;;;;;;5.40;1.30;;;24.90;27.80;;;;;;5070339;28;47156;-63
2022/09/13 10:45:26;;;;;;;3.13;1.30;;;25.20;26.10;;;;;;5074759;28;46555;-64
2022/09/13 10:48:06;;;;;;;2.60;1.20;;;25.40;26.20;;;;;;5073397;27;46409;-64
2022/09/13 10:50:34;;;;;;;2.20;1.17;;;25.60;25.50;;;;;;5073818;28;46506;-62
2022/09/13 10:53:02;;;;;;;5.23;1.40;;;26.00;25.30;;;;;;5073888;28;45922;-65
2022/09/13 10:55:30;;;;;;;2.73;1.30;;;26.50;24.20;;;;;;5072494;28;46964;-63
2022/09/13 10:58:01;;;;;;;5.70;1.23;;;26.60;24.40;;;;;;5074193;27;46460;-63
2022/09/13 11:00:58;;;;;;;6.83;1.43;;;26.60;24.00;;;;;;5072865;28;46818;-65
2022/09/13 11:03:36;;;;;;;2.40;1.20;;;26.60;23.70;;;;;;5071775;27;46782;-65
2022/09/13 11:06:34;;;;;;;5.13;1.40;;;26.70;22.60;;;;;;5074519;28;46861;-65
2022/09/13 11:09:31;;;;;;;3.40;1.47;;;26.70;23.20;;;;;;5072704;28;46436;-65
2022/09/13 11:12:20;;;;;;;2.63;1.10;;;26.70;22.70;;;;;;5057037;28;46034;-63
2022/09/13 11:15:03;;;;;;;4.37;1.20;;;26.90;21.50;;;;;;5072782;28;46558;-63
2022/09/13 11:17:38;;;;;;;2.50;1.20;;;26.80;22.30;;;;;;5073402;27;46390;-64
2022/09/13 11:20:12;;;;;;;3.67;1.33;;;26.90;22.60;;;;;;5073427;28;46454;-65
2022/09/13 11:22:46;;;;;;;2.97;1.37;;;26.70;22.00;;;;;;5073554;27;46380;-65
2022/09/13 11:25:47;;;;;;;3.70;1.43;;;26.80;21.30;;;;;;5073678;28;46486;-63
2022/09/13 11:28:27;;;;;;;5.10;1.57;;;27.00;21.90;;;;;;5072426;28;46342;-63
2022/09/13 11:31:42;;;;;;;2.50;1.33;;;27.20;21.30;;;;;;5074153;28;46408;-64
2022/09/13 11:34:36;;;;;;;3.93;1.57;;;27.10;20.30;;;;;;5055440;27;46468;-64
2022/09/13 11:37:41;;;;;;;2.70;1.30;;;27.10;21.00;;;;;;5072643;28;47490;-67
2022/09/13 11:40:28;;;;;;;2.90;1.30;;;27.00;21.30;;;;;;5070575;27;46428;-63
2022/09/13 11:43:08;;;;;;;4.17;1.50;;;27.00;21.50;;;;;;5072293;28;46584;-63
2022/09/13 11:46:15;;;;;;;2.10;1.10;;;26.80;20.70;;;;;;5073815;28;46354;-63
2022/09/13 11:48:55;;;;;;;2.43;1.40;;;26.90;21.80;;;;;;5071440;28;46461;-64
2022/09/13 11:51:42;;;;;;;4.10;1.17;;;26.90;21.30;;;;;;5073976;27;46415;-64
2022/09/13 11:54:21;;;;;;;2.77;1.10;;;26.80;20.60;;;;;;5073380;27;46059;-64
2022/09/13 11:56:57;;;;;;;3.20;1.40;;;26.70;21.20;;;;;;5073722;28;46621;-64
2022/09/13 11:59:46;;;;;;;3.77;1.43;;;26.70;21.10;;;;;;5072606;28;48058;-63
2022/09/13 12:02:38;;;;;;;5.07;1.33;;;26.80;20.50;;;;;;5068232;27;46478;-63
2022/09/13 12:05:20;;;;;;;2.27;1.10;;;26.70;20.70;;;;;;5074411;28;46518;-63
2022/09/13 12:07:56;;;;;;;7.17;1.33;;;26.60;21.30;;;;;;5072406;28;45895;-64
2022/09/13 12:10:37;;;;;;;3.00;1.07;;;26.60;21.70;;;;;;5073915;27;47093;-63
2022/09/13 12:13:15;;;;;;;8.17;1.23;;;26.60;21.90;;;;;;5072264;28;46620;-63
2022/09/13 12:15:43;;;;;;;3.53;1.10;;;26.40;20.90;;;;;;5074525;28;46520;-63
2022/09/13 12:18:14;;;;;;;2.60;1.27;;;26.30;21.30;;;;;;5077088;28;46555;-63
2022/09/13 12:20:59;;;;;;;4.33;1.20;;;26.20;21.40;;;;;;5075621;27;47986;-62
2022/09/13 12:23:47;;;;;;;4.10;1.50;;;26.20;21.50;;;;;;5076541;28;46436;-62
2022/09/13 12:26:13;;;;;;;2.70;1.30;;;26.30;20.80;;;;;;5076509;28;46431;-62
2022/09/13 12:28:48;;;;;;;2.20;1.00;;;26.20;21.80;;;;;;5076922;27;46412;-64
2022/09/13 12:31:21;;;;;;;3.50;1.67;;;26.20;21.30;;;;;;5075708;28;47191;-63
2022/09/13 12:33:48;;;;;;;3.70;1.10;;;26.30;20.90;;;;;;5076137;28;46646;-63
2022/09/13 12:36:43;;;;;;;6.23;1.47;;;26.20;20.10;;;;;;5075726;28;46366;-64
2022/09/13 12:39:55;;;;;;;5.70;1.20;;;26.20;21.00;;;;;;5075685;28;46551;-63
2022/09/13 12:42:32;;;;;;;2.50;1.07;;;26.40;20.90;;;;;;5067455;28;46504;-64
2022/09/13 12:45:26;;;;;;;2.37;1.10;;;26.40;20.40;;;;;;5075475;28;46610;-63
2022/09/13 12:48:38;;;;;;;2.40;1.37;;;26.40;20.90;;;;;;5076260;28;46700;-63
2022/09/13 12:51:57;;;;;;;2.97;1.10;;;26.40;20.80;;;;;;5075913;27;47014;-63
2022/09/13 12:54:52;;;;;;;3.13;1.13;;;26.20;20.20;;;;;;5075665;27;47280;-63
2022/09/13 12:58:07;;;;;;;3.00;1.10;;;26.20;20.00;;;;;;5072513;27;46659;-63
2022/09/13 13:01:10;;;;;;;5.60;1.30;;;26.30;20.30;;;;;;5065212;28;46639;-64
2022/09/13 13:04:03;;;;;;;2.03;1.03;;;26.20;20.10;;;;;;5075288;28;46620;-63
2022/09/13 13:06:48;;;;;;;2.30;1.10;;;26.10;19.10;;;;;;5073378;27;48948;-62
2022/09/13 13:09:42;;;;;;;2.40;1.07;;;26.10;19.50;;;;;;5077920;27;46404;-63
2022/09/13 13:12:53;;;;;;;3.00;1.20;;;26.10;19.60;;;;;;5071788;27;46386;-63
2022/09/13 13:15:52;;;;;;;3.97;1.30;;;26.30;19.20;;;;;;5074071;28;46675;-63
2022/09/13 13:18:22;;;;;;;4.03;1.53;;;26.40;20.70;;;;;;5074623;28;46419;-63
2022/09/13 13:20:54;;;;;;;3.20;0.90;;;26.40;19.40;;;;;;5074541;28;46456;-63
2022/09/13 13:23:34;;;;;;;6.80;1.23;;;26.20;19.00;;;;;;5073505;28;46424;-63
2022/09/13 13:26:16;;;;;;;2.00;1.03;;;26.00;17.60;;;;;;5075508;28;46449;-63
2022/09/13 13:28:46;;;;;;;3.33;1.17;;;26.10;18.60;;;;;;5087176;28;46388;-65
2022/09/13 13:31:23;;;;;;;2.93;1.20;;;26.20;18.80;;;;;;5076379;28;46495;-64
2022/09/13 13:33:58;;;;;;;2.27;0.90;;;26.20;17.80;;;;;;5074059;28;46445;-64
2022/09/13 13:36:44;;;;;;;3.50;1.00;;;26.30;16.90;;;;;;5073322;28;46346;-64
2022/09/13 13:39:29;;;;;;;5.13;1.40;;;26.30;18.10;;;;;;5067555;28;46402;-63
2022/09/13 13:42:05;;;;;;;2.93;1.10;;;26.50;17.30;;;;;;5070704;27;46506;-63